createdAt,value
2019-05-23T00:01:54.556Z,7.17
2019-05-23T00:05:11.481Z,12.53
2019-05-23T00:08:02.597Z,11.07
2019-05-23T00:10:55.989Z,9.13
2019-05-23T00:13:49.474Z,8.97
2019-05-23T00:16:23.493Z,9.53
2019-05-23T00:18:55.821Z,10.20
2019-05-23T00:21:26.630Z,9.00
2019-05-23T00:24:00.275Z,9.33
2019-05-23T00:26:31.401Z,8.30
2019-05-23T00:29:09.953Z,7.30
2019-05-23T00:31:54.345Z,7.57
2019-05-23T00:34:25.985Z,7.50
2019-05-23T00:36:56.456Z,7.77
2019-05-23T00:39:27.277Z,7.60
2019-05-23T00:41:58.144Z,7.90
2019-05-23T00:44:30.782Z,7.57
2019-05-23T00:47:01.848Z,7.07
2019-05-23T00:49:32.215Z,7.00
2019-05-23T00:52:04.054Z,7.13
2019-05-23T00:54:34.455Z,6.97
2019-05-23T00:57:06.658Z,7.47
2019-05-23T00:59:37.073Z,6.77
2019-05-23T01:02:09.456Z,7.33
2019-05-23T01:04:42.307Z,7.00
2019-05-23T01:07:14.710Z,7.20
2019-05-23T01:09:46.377Z,6.97
2019-05-23T01:12:18.235Z,7.20
2019-05-23T01:14:49.218Z,7.13
2019-05-23T01:17:22.759Z,7.20
2019-05-23T01:19:54.221Z,7.10
2019-05-23T01:22:25.351Z,7.07
2019-05-23T01:24:58.247Z,8.13
2019-05-23T01:27:30.508Z,8.00
2019-05-23T01:30:02.534Z,7.80
2019-05-23T01:32:39.940Z,7.70
2019-05-23T01:35:13.512Z,7.63
2019-05-23T01:37:45.112Z,8.17
2019-05-23T01:40:16.266Z,7.40
2019-05-23T01:42:47.466Z,7.50
2019-05-23T01:45:19.374Z,7.67
2019-05-23T01:47:50.367Z,7.40
2019-05-23T01:50:25.345Z,7.53
2019-05-23T01:52:56.810Z,7.97
2019-05-23T01:55:27.460Z,7.73
2019-05-23T01:57:59.566Z,8.03
2019-05-23T02:00:31.408Z,7.47
2019-05-23T02:03:01.889Z,7.77
2019-05-23T02:05:33.322Z,8.10
2019-05-23T02:08:04.354Z,7.17
2019-05-23T02:10:35.501Z,7.27
2019-05-23T02:13:07.251Z,8.03
2019-05-23T02:15:37.846Z,8.23
2019-05-23T02:18:10.088Z,7.93
2019-05-23T02:20:41.455Z,8.37
2019-05-23T02:23:19.843Z,8.07
2019-05-23T02:25:51.750Z,7.87
2019-05-23T02:28:23.809Z,7.93
2019-05-23T02:30:54.263Z,8.03
2019-05-23T02:33:25.222Z,9.23
2019-05-23T02:35:55.622Z,8.57
2019-05-23T02:38:57.824Z,8.70
2019-05-23T02:41:58.499Z,8.30
2019-05-23T02:44:31.829Z,9.00
2019-05-23T02:47:20.649Z,8.53
2019-05-23T02:49:52.055Z,9.00
2019-05-23T02:52:44.183Z,9.27
2019-05-23T02:55:23.311Z,9.23
2019-05-23T02:57:55.869Z,9.03
2019-05-23T03:01:03.556Z,8.60
2019-05-23T03:03:35.964Z,8.87
2019-05-23T03:06:12.900Z,8.80
2019-05-23T03:08:46.272Z,9.17
2019-05-23T03:11:36.679Z,8.53
2019-05-23T03:14:09.163Z,8.57
2019-05-23T03:16:42.504Z,8.70
2019-05-23T03:19:37.134Z,8.90
2019-05-23T03:22:28.294Z,8.70
2019-05-23T03:25:03.238Z,9.07
2019-05-23T03:27:39.886Z,8.80
2019-05-23T03:30:15.882Z,9.90
2019-05-23T03:32:49.049Z,9.60
2019-05-23T03:35:29.685Z,8.90
2019-05-23T03:38:01.621Z,9.70
2019-05-23T03:40:33.371Z,9.23
2019-05-23T03:43:05.313Z,9.23
2019-05-23T03:45:40.227Z,9.83
2019-05-23T03:48:11.721Z,9.53
2019-05-23T03:50:43.632Z,8.73
2019-05-23T03:53:15.073Z,9.83
2019-05-23T03:55:48.067Z,9.70
2019-05-23T03:58:21.377Z,9.67
2019-05-23T04:00:53.558Z,9.20
2019-05-23T04:03:26.747Z,9.47
2019-05-23T04:05:58.963Z,8.97
2019-05-23T04:08:30.282Z,8.90
2019-05-23T04:11:01.909Z,9.13
2019-05-23T04:13:32.627Z,9.47
2019-05-23T04:16:03.686Z,8.97
2019-05-23T04:18:35.393Z,9.27
2019-05-23T04:21:06.259Z,9.67
2019-05-23T04:23:36.761Z,9.17
2019-05-23T04:26:07.371Z,9.90
2019-05-23T04:28:38.074Z,9.63
2019-05-23T04:31:12.728Z,10.27
2019-05-23T04:33:40.996Z,10.10
2019-05-23T04:36:11.848Z,9.30
2019-05-23T04:38:43.259Z,9.20
2019-05-23T04:41:13.967Z,10.47
2019-05-23T04:43:44.555Z,10.57
2019-05-23T04:46:15.421Z,11.33
2019-05-23T04:48:46.043Z,9.73
2019-05-23T04:51:16.588Z,9.80
2019-05-23T04:53:47.320Z,9.50
2019-05-23T04:56:18.149Z,9.67
2019-05-23T04:58:49.165Z,10.13
2019-05-23T05:01:21.838Z,10.60
2019-05-23T05:03:52.828Z,10.87
2019-05-23T05:06:24.921Z,10.57
2019-05-23T05:08:56.922Z,10.00
2019-05-23T05:11:30.428Z,9.87
2019-05-23T05:14:00.107Z,10.53
2019-05-23T05:16:31.329Z,9.27
2019-05-23T05:19:01.885Z,9.47
2019-05-23T05:21:32.473Z,8.63
2019-05-23T05:24:02.999Z,8.53
2019-05-23T05:26:33.658Z,9.20
2019-05-23T05:29:05.308Z,9.60
2019-05-23T05:31:36.156Z,8.47
2019-05-23T05:34:06.693Z,8.57
2019-05-23T05:36:37.164Z,9.07
2019-05-23T05:39:09.361Z,9.80
2019-05-23T05:41:40.361Z,9.20
2019-05-23T05:44:11.729Z,9.07
2019-05-23T05:46:42.885Z,8.97
2019-05-23T05:49:13.919Z,9.17
2019-05-23T05:51:44.689Z,9.37
2019-05-23T05:54:15.771Z,9.57
2019-05-23T05:56:46.623Z,9.73
2019-05-23T05:59:17.000Z,8.37
2019-05-23T06:01:47.909Z,11.13
2019-05-23T06:04:18.461Z,10.37
2019-05-23T06:07:08.448Z,7.93
2019-05-23T06:09:38.864Z,8.00
2019-05-23T06:12:09.573Z,8.20
2019-05-23T06:14:40.143Z,7.33
2019-05-23T06:17:13.694Z,7.00
2019-05-23T06:19:44.135Z,7.30
2019-05-23T06:22:15.493Z,7.80
2019-05-23T06:24:52.358Z,6.90
2019-05-23T06:27:20.408Z,6.73
2019-05-23T06:29:50.871Z,7.97
2019-05-23T06:32:22.956Z,6.30
2019-05-23T06:34:55.304Z,6.40
2019-05-23T06:37:26.656Z,6.30
2019-05-23T06:39:57.994Z,6.43
2019-05-23T06:42:29.000Z,5.67
2019-05-23T06:44:59.775Z,6.00
2019-05-23T06:47:31.499Z,7.20
2019-05-23T06:50:02.076Z,7.50
2019-05-23T06:52:32.614Z,8.40
2019-05-23T06:55:03.031Z,8.20
2019-05-23T06:57:33.504Z,7.57
2019-05-23T07:00:04.303Z,7.60
2019-05-23T07:02:35.108Z,8.00
2019-05-23T07:05:06.461Z,7.73
2019-05-23T07:07:37.380Z,7.13
2019-05-23T07:10:08.950Z,6.97
2019-05-23T07:12:39.579Z,6.70
2019-05-23T07:15:10.840Z,6.13
2019-05-23T07:17:41.367Z,7.43
2019-05-23T07:20:12.951Z,7.17
2019-05-23T07:22:43.427Z,6.80
2019-05-23T07:25:14.427Z,6.00
2019-05-23T07:27:45.378Z,7.43
2019-05-23T07:30:20.552Z,7.10
2019-05-23T07:32:51.022Z,7.07
2019-05-23T07:35:21.918Z,7.30
2019-05-23T07:37:52.651Z,6.10
2019-05-23T07:40:24.837Z,7.17
2019-05-23T07:42:56.371Z,7.70
2019-05-23T07:45:39.764Z,6.87
2019-05-23T07:48:09.115Z,8.07
2019-05-23T07:50:39.674Z,5.33
2019-05-23T07:53:12.381Z,5.47
2019-05-23T07:55:45.780Z,4.40
2019-05-23T07:58:16.484Z,4.10
2019-05-23T08:00:52.467Z,3.90
2019-05-23T08:03:24.652Z,4.97
2019-05-23T08:05:55.251Z,3.67
2019-05-23T08:08:25.764Z,4.60
2019-05-23T08:10:56.448Z,5.40
2019-05-23T08:13:27.006Z,5.27
2019-05-23T08:15:57.670Z,4.20
2019-05-23T08:18:28.554Z,3.90
2019-05-23T08:20:59.069Z,5.47
2019-05-23T08:23:29.631Z,4.40
2019-05-23T08:26:00.091Z,5.00
2019-05-23T08:28:30.903Z,4.40
2019-05-23T08:31:01.363Z,4.90
2019-05-23T08:33:32.310Z,4.70
2019-05-23T08:36:03.440Z,4.30
2019-05-23T08:38:34.089Z,4.67
2019-05-23T08:41:05.743Z,4.97
2019-05-23T08:43:36.395Z,5.20
2019-05-23T08:46:08.034Z,4.47
2019-05-23T08:48:38.838Z,4.80
2019-05-23T08:51:09.259Z,4.13
2019-05-23T08:53:40.215Z,3.73
2019-05-23T08:56:18.814Z,4.47
2019-05-23T08:58:43.426Z,4.97
2019-05-23T09:01:13.981Z,5.80
2019-05-23T09:03:44.773Z,4.63
2019-05-23T09:06:15.562Z,4.27
2019-05-23T09:08:46.699Z,4.30
2019-05-23T09:11:19.409Z,4.00
2019-05-23T09:13:49.953Z,5.27
2019-05-23T09:16:21.085Z,4.00
2019-05-23T09:18:51.699Z,3.77
2019-05-23T09:21:22.359Z,4.23
2019-05-23T09:23:52.734Z,3.50
2019-05-23T09:26:23.553Z,4.53
2019-05-23T09:28:53.948Z,3.17
2019-05-23T09:31:24.648Z,3.93
2019-05-23T09:33:55.299Z,3.90
2019-05-23T09:36:26.025Z,3.57
2019-05-23T09:38:56.442Z,4.50
2019-05-23T09:41:26.874Z,3.17
2019-05-23T09:43:57.394Z,3.30
2019-05-23T09:46:27.954Z,3.87
2019-05-23T09:48:58.439Z,5.80
2019-05-23T09:51:29.193Z,3.70
2019-05-23T09:53:59.819Z,3.80
2019-05-23T09:56:31.518Z,4.70
2019-05-23T09:59:02.105Z,3.57
2019-05-23T10:01:32.854Z,3.67
2019-05-23T10:04:04.424Z,4.87
2019-05-23T10:06:35.050Z,4.83
2019-05-23T10:09:07.627Z,6.50
2019-05-23T10:11:38.256Z,6.73
2019-05-23T10:14:14.784Z,5.90
2019-05-23T10:16:45.865Z,4.40
2019-05-23T10:19:16.598Z,9.20
2019-05-23T10:21:47.567Z,10.57
2019-05-23T10:24:19.534Z,12.33
2019-05-23T10:26:50.029Z,13.03
2019-05-23T10:29:20.689Z,14.43
2019-05-23T10:31:51.101Z,15.77
2019-05-23T10:34:21.724Z,15.33
2019-05-23T10:36:52.480Z,17.90
2019-05-23T10:39:23.319Z,16.77
2019-05-23T10:41:54.131Z,15.43
2019-05-23T10:44:24.604Z,16.40
2019-05-23T10:46:55.169Z,13.53
2019-05-23T10:49:25.636Z,13.27
2019-05-23T10:51:56.087Z,14.07
2019-05-23T10:54:26.513Z,11.77
2019-05-23T10:56:57.128Z,11.87
2019-05-23T10:59:28.285Z,11.80
2019-05-23T11:01:58.671Z,12.10
2019-05-23T11:04:29.189Z,12.43
2019-05-23T11:07:01.315Z,12.43
2019-05-23T11:09:38.060Z,13.77
2019-05-23T11:12:06.052Z,12.47
2019-05-23T11:14:36.894Z,13.37
2019-05-23T11:17:08.258Z,8.63
2019-05-23T11:19:38.818Z,5.20
2019-05-23T11:22:11.339Z,4.13
2019-05-23T11:24:42.089Z,7.20
2019-05-23T11:27:12.762Z,10.03
2019-05-23T11:29:43.374Z,12.30
2019-05-23T11:32:19.260Z,13.53
2019-05-23T11:34:55.223Z,15.73
2019-05-23T11:37:26.041Z,14.97
2019-05-23T11:39:56.811Z,16.30
2019-05-23T11:42:27.224Z,16.40
2019-05-23T11:44:58.819Z,16.70
2019-05-23T11:47:31.993Z,16.60
2019-05-23T11:50:02.176Z,18.03
2019-05-23T11:52:32.698Z,16.90
2019-05-23T11:55:03.615Z,16.80
2019-05-23T11:57:37.476Z,14.57
2019-05-23T12:00:10.011Z,14.60
2019-05-23T12:02:42.524Z,14.30
2019-05-23T12:05:20.420Z,14.10
2019-05-23T12:07:51.203Z,14.30
2019-05-23T12:10:21.840Z,14.53
2019-05-23T12:12:52.224Z,12.83
2019-05-23T12:15:27.506Z,12.83
2019-05-23T12:17:58.554Z,13.87
2019-05-23T12:20:29.325Z,12.60
2019-05-23T12:22:59.918Z,14.53
2019-05-23T12:25:31.253Z,14.90
2019-05-23T12:28:01.684Z,14.80
2019-05-23T12:30:33.219Z,16.27
2019-05-23T12:33:03.734Z,17.53
2019-05-23T12:35:34.253Z,18.27
2019-05-23T12:38:05.288Z,21.00
2019-05-23T12:40:36.275Z,21.10
2019-05-23T12:43:06.854Z,21.10
2019-05-23T12:45:37.439Z,22.20
2019-05-23T12:48:14.371Z,22.03
2019-05-23T12:50:46.078Z,22.60
2019-05-23T12:53:18.272Z,20.83
2019-05-23T12:55:48.901Z,22.00
2019-05-23T12:58:20.151Z,20.80
2019-05-23T13:00:54.074Z,19.30
2019-05-23T13:03:24.889Z,17.43
2019-05-23T13:05:55.518Z,15.53
2019-05-23T13:08:26.186Z,12.97
2019-05-23T13:10:56.679Z,11.37
2019-05-23T13:13:27.926Z,9.00
2019-05-23T13:15:58.468Z,7.80
2019-05-23T13:18:28.852Z,8.33
2019-05-23T13:21:00.006Z,9.87
2019-05-23T13:23:31.190Z,11.13
2019-05-23T13:26:03.184Z,11.73
2019-05-23T13:28:33.632Z,10.47
2019-05-23T13:31:04.255Z,12.20
2019-05-23T13:33:34.648Z,11.10
2019-05-23T13:36:05.429Z,12.10
2019-05-23T13:38:36.043Z,12.93
2019-05-23T13:41:07.659Z,13.20
2019-05-23T13:43:38.186Z,13.77
2019-05-23T13:46:09.206Z,13.63
2019-05-23T13:48:40.173Z,13.43
2019-05-23T13:51:10.797Z,12.80
2019-05-23T13:53:41.441Z,12.43
2019-05-23T13:56:11.864Z,13.40
2019-05-23T13:58:42.462Z,13.83
2019-05-23T14:01:13.290Z,15.17
2019-05-23T14:03:44.107Z,15.73
2019-05-23T14:06:14.632Z,17.57
2019-05-23T14:08:45.035Z,16.10
2019-05-23T14:11:15.815Z,17.13
2019-05-23T14:13:46.710Z,17.20
2019-05-23T14:16:17.761Z,17.57
2019-05-23T14:18:48.170Z,16.93
2019-05-23T14:21:18.567Z,16.73
2019-05-23T14:23:49.169Z,17.30
2019-05-23T14:26:20.553Z,17.47
2019-05-23T14:28:51.121Z,18.37
2019-05-23T14:31:23.906Z,18.23
2019-05-23T14:34:00.439Z,19.87
2019-05-23T14:36:41.743Z,20.07
2019-05-23T14:39:34.624Z,23.70
2019-05-23T14:42:31.967Z,21.73
2019-05-23T14:45:02.741Z,21.03
2019-05-23T14:47:44.905Z,18.53
2019-05-23T14:50:38.366Z,18.40
2019-05-23T14:53:11.763Z,17.80
2019-05-23T14:55:42.552Z,17.30
2019-05-23T14:58:13.707Z,17.80
2019-05-23T15:00:45.446Z,17.43
2019-05-23T15:03:15.971Z,16.37
2019-05-23T15:05:46.787Z,16.87
2019-05-23T15:08:17.420Z,17.93
2019-05-23T15:10:48.184Z,17.43
2019-05-23T15:13:18.741Z,16.40
2019-05-23T15:15:49.670Z,17.20
2019-05-23T15:18:20.219Z,16.37
2019-05-23T15:20:51.110Z,16.70
2019-05-23T15:23:21.827Z,17.97
2019-05-23T15:25:52.842Z,18.00
2019-05-23T15:28:23.509Z,18.27
2019-05-23T15:30:54.071Z,19.53
2019-05-23T15:33:24.666Z,18.63
2019-05-23T15:35:55.369Z,19.43
2019-05-23T15:38:27.234Z,21.00
2019-05-23T15:40:57.920Z,20.43
2019-05-23T15:43:28.520Z,20.33
2019-05-23T15:45:58.978Z,20.10
2019-05-23T15:48:29.543Z,21.67
2019-05-23T15:51:00.195Z,21.57
2019-05-23T15:53:47.696Z,21.90
2019-05-23T15:56:28.879Z,22.50
2019-05-23T15:59:15.338Z,21.77
2019-05-23T16:01:53.749Z,19.93
2019-05-23T16:04:24.721Z,21.13
2019-05-23T16:06:55.937Z,21.40
2019-05-23T16:09:31.059Z,20.63
2019-05-23T16:12:01.868Z,19.40
2019-05-23T16:14:32.619Z,19.53
2019-05-23T16:17:03.264Z,19.00
2019-05-23T16:19:33.976Z,19.17
2019-05-23T16:22:05.329Z,18.97
2019-05-23T16:24:37.831Z,17.30
2019-05-23T16:27:09.117Z,17.47
2019-05-23T16:29:40.596Z,16.57
2019-05-23T16:32:11.082Z,15.83
2019-05-23T16:34:41.806Z,15.77
2019-05-23T16:37:12.758Z,15.40
2019-05-23T16:39:48.728Z,15.50
2019-05-23T16:42:16.174Z,16.00
2019-05-23T16:44:46.623Z,16.40
2019-05-23T16:47:17.155Z,15.57
2019-05-23T16:49:47.738Z,15.23
2019-05-23T16:52:18.335Z,16.00
2019-05-23T16:54:51.597Z,16.60
2019-05-23T16:57:31.627Z,15.37
2019-05-23T17:00:16.996Z,15.20
2019-05-23T17:02:58.975Z,16.03
2019-05-23T17:05:51.243Z,15.23
2019-05-23T17:08:43.367Z,14.73
2019-05-23T17:11:35.769Z,15.53
2019-05-23T17:14:14.681Z,15.23
2019-05-23T17:16:51.159Z,16.00
2019-05-23T17:19:39.791Z,16.90
2019-05-23T17:22:38.554Z,17.53
2019-05-23T17:25:34.290Z,16.87
2019-05-23T17:28:09.089Z,16.73
2019-05-23T17:30:49.961Z,16.70
2019-05-23T17:33:21.557Z,16.10
2019-05-23T17:35:52.083Z,16.87
2019-05-23T17:38:22.888Z,17.40
2019-05-23T17:40:53.984Z,17.40
2019-05-23T17:43:24.480Z,16.73
2019-05-23T17:45:55.128Z,16.90
2019-05-23T17:48:25.750Z,17.30
2019-05-23T17:50:56.259Z,17.30
2019-05-23T17:53:27.308Z,17.60
2019-05-23T17:55:58.354Z,18.63
2019-05-23T17:58:28.925Z,20.10
2019-05-23T18:00:59.936Z,18.70
2019-05-23T18:03:30.971Z,20.93
2019-05-23T18:06:02.714Z,18.93
2019-05-23T18:08:33.716Z,19.37
2019-05-23T18:11:04.418Z,19.90
2019-05-23T18:13:35.567Z,19.67
2019-05-23T18:16:06.740Z,19.53
2019-05-23T18:18:37.247Z,20.17
2019-05-23T18:21:09.284Z,19.90
2019-05-23T18:23:40.531Z,19.87
2019-05-23T18:26:11.659Z,21.07
2019-05-23T18:28:42.399Z,20.40
2019-05-23T18:31:17.409Z,21.60
2019-05-23T18:33:48.542Z,22.20
2019-05-23T18:36:19.813Z,20.27
2019-05-23T18:38:50.543Z,19.93
2019-05-23T18:41:21.420Z,19.70
2019-05-23T18:43:52.512Z,19.37
2019-05-23T18:46:41.257Z,18.07
2019-05-23T18:49:14.563Z,19.10
2019-05-23T18:51:45.484Z,19.47
2019-05-23T18:54:16.199Z,19.33
2019-05-23T18:56:47.126Z,18.50
2019-05-23T18:59:36.090Z,18.67
2019-05-23T19:02:07.056Z,18.17
2019-05-23T19:04:38.046Z,17.83
2019-05-23T19:07:27.621Z,18.80
2019-05-23T19:10:33.832Z,18.47
2019-05-23T19:13:22.273Z,19.30
2019-05-23T19:15:52.809Z,18.83
2019-05-23T19:18:24.350Z,18.83
2019-05-23T19:21:12.780Z,18.07
2019-05-23T19:24:01.700Z,17.83
2019-05-23T19:26:32.931Z,17.77
2019-05-23T19:29:04.008Z,16.57
2019-05-23T19:31:52.158Z,17.00
2019-05-23T19:34:23.084Z,17.60
2019-05-23T19:37:18.354Z,16.60
2019-05-23T19:39:49.063Z,16.50
2019-05-23T19:42:41.190Z,17.03
2019-05-23T19:45:12.263Z,16.87
2019-05-23T19:47:43.280Z,15.60
2019-05-23T19:50:14.756Z,15.80
2019-05-23T19:53:20.916Z,17.17
2019-05-23T19:56:09.344Z,16.53
2019-05-23T19:59:15.378Z,15.83
2019-05-23T20:02:07.811Z,15.47
2019-05-23T20:04:41.738Z,17.33
2019-05-23T20:07:15.633Z,15.70
2019-05-23T20:09:48.478Z,16.80
2019-05-23T20:12:19.470Z,16.40
2019-05-23T20:14:50.391Z,17.30
2019-05-23T20:17:21.646Z,15.77
2019-05-23T20:19:52.852Z,15.83
2019-05-23T20:22:23.285Z,15.27
2019-05-23T20:25:12.076Z,14.07
2019-05-23T20:27:42.721Z,14.00
2019-05-23T20:30:20.662Z,13.73
2019-05-23T20:32:51.544Z,14.37
2019-05-23T20:35:22.446Z,12.53
2019-05-23T20:38:11.541Z,13.53
2019-05-23T20:40:59.994Z,13.07
2019-05-23T20:43:31.139Z,13.03
2019-05-23T20:46:19.648Z,12.30
2019-05-23T20:48:50.500Z,12.77
2019-05-23T20:51:39.871Z,12.33
2019-05-23T20:54:10.518Z,12.63
2019-05-23T20:56:41.489Z,12.43
2019-05-23T20:59:30.098Z,11.87
2019-05-23T21:02:00.573Z,13.67
2019-05-23T21:04:31.880Z,11.70
2019-05-23T21:07:02.305Z,12.53
2019-05-23T21:09:33.201Z,12.50
2019-05-23T21:12:04.223Z,11.87
2019-05-23T21:14:34.882Z,12.13
2019-05-23T21:17:05.860Z,14.27
2019-05-23T21:19:36.653Z,14.77
2019-05-23T21:22:25.499Z,16.17
2019-05-23T21:25:13.579Z,16.00
2019-05-23T21:27:44.135Z,15.23
2019-05-23T21:30:14.737Z,16.20
2019-05-23T21:32:45.510Z,15.63
2019-05-23T21:35:16.017Z,16.07
2019-05-23T21:37:46.620Z,15.63
2019-05-23T21:40:37.466Z,16.47
2019-05-23T21:43:08.268Z,14.83
2019-05-23T21:45:38.740Z,15.30
2019-05-23T21:48:27.260Z,15.27
2019-05-23T21:50:58.128Z,14.93
2019-05-23T21:53:28.674Z,15.60
2019-05-23T21:56:17.163Z,14.70
2019-05-23T21:59:05.966Z,15.53
2019-05-23T22:02:07.720Z,14.70
2019-05-23T22:05:06.094Z,14.33
2019-05-23T22:07:36.943Z,13.43
2019-05-23T22:10:07.998Z,13.60
2019-05-23T22:13:04.365Z,12.90
2019-05-23T22:15:46.021Z,13.60
2019-05-23T22:18:16.858Z,13.33
2019-05-23T22:20:47.480Z,12.13
2019-05-23T22:23:35.662Z,12.43
2019-05-23T22:26:24.250Z,13.20
2019-05-23T22:28:54.761Z,12.67
2019-05-23T22:31:26.851Z,12.57
2019-05-23T22:34:04.894Z,12.20
2019-05-23T22:36:41.151Z,13.23
2019-05-23T22:39:11.647Z,12.87
2019-05-23T22:42:18.949Z,13.20
2019-05-23T22:44:49.485Z,13.57
2019-05-23T22:47:20.085Z,15.30
2019-05-23T22:49:50.629Z,13.43
2019-05-23T22:52:38.706Z,11.87
2019-05-23T22:55:09.382Z,12.57
2019-05-23T22:57:57.749Z,11.90
2019-05-23T23:00:47.792Z,11.00
2019-05-23T23:03:18.479Z,10.97
2019-05-23T23:05:48.997Z,10.70
2019-05-23T23:08:20.747Z,11.00
2019-05-23T23:11:10.131Z,10.00
2019-05-23T23:13:58.458Z,9.87
2019-05-23T23:16:28.859Z,9.70
2019-05-23T23:18:59.523Z,9.13
2019-05-23T23:21:30.296Z,9.80
2019-05-23T23:24:00.820Z,8.93
2019-05-23T23:26:31.290Z,8.63
2019-05-23T23:29:01.681Z,8.37
2019-05-23T23:31:32.194Z,9.17
2019-05-23T23:34:02.619Z,8.90
2019-05-23T23:36:33.253Z,7.80
2019-05-23T23:39:05.600Z,7.50
2019-05-23T23:41:36.071Z,7.03
2019-05-23T23:44:25.259Z,7.23
2019-05-23T23:47:13.914Z,6.30
2019-05-23T23:50:02.142Z,6.50
2019-05-23T23:53:26.331Z,6.67
2019-05-23T23:56:32.477Z,6.60
2019-05-23T23:59:20.675Z,6.40
